createdAt,value
2018-04-15T00:00:01.319Z,56.83
2018-04-15T00:02:29.788Z,57.00
2018-04-15T00:04:58.352Z,56.56
2018-04-15T00:07:29.000Z,56.47
2018-04-15T00:09:57.422Z,56.87
2018-04-15T00:12:25.851Z,56.66
2018-04-15T00:14:54.333Z,57.10
2018-04-15T00:17:22.947Z,57.73
2018-04-15T00:19:53.319Z,58.42
2018-04-15T00:22:21.763Z,58.62
2018-04-15T00:24:50.197Z,58.93
2018-04-15T00:27:18.606Z,59.54
2018-04-15T00:29:47.103Z,59.25
2018-04-15T00:32:15.511Z,59.19
2018-04-15T00:34:43.974Z,59.14
2018-04-15T00:37:12.454Z,59.09
2018-04-15T00:39:40.839Z,58.98
2018-04-15T00:42:09.485Z,59.60
2018-04-15T00:44:37.880Z,59.82
2018-04-15T00:47:06.292Z,59.48
2018-04-15T00:49:34.722Z,59.69
2018-04-15T00:52:03.138Z,58.71
2018-04-15T00:54:31.607Z,59.56
2018-04-15T00:57:01.995Z,59.66
2018-04-15T00:59:31.288Z,60.07
2018-04-15T01:01:59.756Z,60.11
2018-04-15T01:04:28.183Z,59.80
2018-04-15T01:07:00.857Z,60.14
2018-04-15T01:09:29.290Z,60.81
2018-04-15T01:11:57.711Z,60.11
2018-04-15T01:14:26.163Z,59.82
2018-04-15T01:16:54.565Z,60.74
2018-04-15T01:19:22.992Z,61.36
2018-04-15T01:21:51.451Z,61.13
2018-04-15T01:24:19.880Z,61.22
2018-04-15T01:26:48.283Z,61.98
2018-04-15T01:29:16.711Z,61.83
2018-04-15T01:31:45.111Z,62.24
2018-04-15T01:34:13.541Z,62.25
2018-04-15T01:36:41.975Z,62.21
2018-04-15T01:39:10.416Z,61.72
2018-04-15T01:41:38.817Z,61.76
2018-04-15T01:44:07.390Z,62.16
2018-04-15T01:46:35.751Z,62.06
2018-04-15T01:49:04.150Z,61.92
2018-04-15T01:51:32.575Z,62.27
2018-04-15T01:54:01.149Z,62.27
2018-04-15T01:56:29.539Z,61.88
2018-04-15T01:59:00.016Z,61.91
2018-04-15T02:01:30.383Z,62.54
2018-04-15T02:04:02.396Z,62.84
2018-04-15T02:06:31.043Z,62.49
2018-04-15T02:09:01.549Z,62.89
2018-04-15T02:11:29.983Z,62.64
2018-04-15T02:13:58.593Z,62.53
2018-04-15T02:16:29.163Z,62.68
2018-04-15T02:18:57.643Z,62.75
2018-04-15T02:21:28.047Z,62.78
2018-04-15T02:23:58.555Z,62.96
2018-04-15T02:26:27.015Z,62.80
2018-04-15T02:28:55.426Z,63.67
2018-04-15T02:31:23.846Z,64.06
2018-04-15T02:33:52.310Z,64.36
2018-04-15T02:36:20.886Z,64.02
2018-04-15T02:38:51.367Z,64.38
2018-04-15T02:41:19.844Z,63.09
2018-04-15T02:43:51.712Z,63.82
2018-04-15T02:46:20.083Z,63.72
2018-04-15T02:48:48.508Z,63.45
2018-04-15T02:51:23.016Z,64.80
2018-04-15T02:53:51.579Z,65.10
2018-04-15T02:56:24.095Z,65.44
2018-04-15T02:58:52.858Z,66.13
2018-04-15T03:01:24.932Z,65.09
2018-04-15T03:03:53.424Z,65.28
2018-04-15T03:06:21.811Z,66.08
2018-04-15T03:08:50.291Z,65.75
2018-04-15T03:11:19.089Z,66.12
2018-04-15T03:13:47.528Z,65.89
2018-04-15T03:16:15.935Z,66.14
2018-04-15T03:18:44.364Z,66.31
2018-04-15T03:21:12.775Z,66.23
2018-04-15T03:23:41.179Z,66.70
2018-04-15T03:26:09.632Z,66.75
2018-04-15T03:28:39.416Z,66.93
2018-04-15T03:31:07.776Z,67.90
2018-04-15T03:33:39.694Z,67.25
2018-04-15T03:36:08.179Z,66.54
2018-04-15T03:38:38.379Z,66.48
2018-04-15T03:41:08.730Z,67.12
2018-04-15T03:43:37.141Z,67.40
2018-04-15T03:46:05.611Z,67.44
2018-04-15T03:48:34.183Z,68.01
2018-04-15T03:51:02.652Z,68.10
2018-04-15T03:53:33.290Z,68.21
2018-04-15T03:56:03.380Z,68.57
2018-04-15T03:58:31.735Z,67.69
2018-04-15T04:01:02.255Z,67.70
2018-04-15T04:03:30.670Z,67.92
2018-04-15T04:05:59.077Z,68.31
2018-04-15T04:08:27.562Z,68.77
2018-04-15T04:10:55.975Z,69.18
2018-04-15T04:13:24.427Z,68.98
2018-04-15T04:15:54.445Z,68.93
2018-04-15T04:18:29.139Z,69.05
2018-04-15T04:21:03.636Z,69.42
2018-04-15T04:23:41.595Z,69.61
2018-04-15T04:26:12.013Z,69.87
2018-04-15T04:28:40.448Z,69.53
2018-04-15T04:31:11.939Z,69.60
2018-04-15T04:33:41.331Z,70.38
2018-04-15T04:36:09.734Z,70.55
2018-04-15T04:38:38.191Z,70.40
2018-04-15T04:41:06.586Z,71.11
2018-04-15T04:43:35.009Z,70.63
2018-04-15T04:46:03.415Z,70.60
2018-04-15T04:48:31.858Z,70.76
2018-04-15T04:51:00.301Z,70.89
2018-04-15T04:53:30.839Z,70.86
2018-04-15T04:56:01.046Z,70.94
2018-04-15T04:58:29.468Z,70.93
2018-04-15T05:00:59.451Z,71.01
2018-04-15T05:03:29.874Z,70.66
2018-04-15T05:06:00.384Z,70.61
2018-04-15T05:08:28.876Z,70.51
2018-04-15T05:10:59.707Z,70.25
2018-04-15T05:13:30.290Z,69.11
2018-04-15T05:16:00.708Z,68.83
2018-04-15T05:18:31.214Z,69.05
2018-04-15T05:20:59.624Z,69.08
2018-04-15T05:23:28.035Z,69.16
2018-04-15T05:25:56.500Z,68.40
2018-04-15T05:28:24.919Z,69.28
2018-04-15T05:30:53.337Z,69.26
2018-04-15T05:33:21.804Z,68.09
2018-04-15T05:35:50.194Z,68.59
2018-04-15T05:38:18.764Z,69.15
2018-04-15T05:40:47.179Z,69.06
2018-04-15T05:43:15.593Z,68.23
2018-04-15T05:45:45.159Z,67.32
2018-04-15T05:48:14.773Z,67.27
2018-04-15T05:50:43.245Z,67.72
2018-04-15T05:53:11.627Z,67.89
2018-04-15T05:55:40.008Z,68.07
2018-04-15T05:58:08.454Z,67.73
2018-04-15T06:00:38.868Z,67.19
2018-04-15T06:03:08.710Z,67.25
2018-04-15T06:05:37.151Z,66.31
2018-04-15T06:08:05.518Z,65.47
2018-04-15T06:10:35.536Z,64.62
2018-04-15T06:13:05.368Z,64.50
2018-04-15T06:15:33.793Z,64.86
2018-04-15T06:18:02.223Z,64.09
2018-04-15T06:20:30.649Z,63.29
2018-04-15T06:22:59.102Z,63.30
2018-04-15T06:25:29.726Z,63.91
2018-04-15T06:27:59.787Z,63.17
2018-04-15T06:30:29.710Z,63.13
2018-04-15T06:32:58.085Z,64.05
2018-04-15T06:35:26.541Z,64.21
2018-04-15T06:37:54.946Z,63.98
2018-04-15T06:40:23.672Z,63.85
2018-04-15T06:42:53.259Z,63.44
2018-04-15T06:45:21.680Z,62.67
2018-04-15T06:47:50.410Z,62.46
2018-04-15T06:50:18.848Z,61.25
2018-04-15T06:52:47.216Z,61.38
2018-04-15T06:55:15.660Z,60.24
2018-04-15T06:57:44.122Z,59.67
2018-04-15T07:00:12.538Z,57.98
2018-04-15T07:02:42.348Z,57.79
2018-04-15T07:05:12.090Z,56.84
2018-04-15T07:07:40.551Z,55.25
2018-04-15T07:10:10.728Z,53.41
2018-04-15T07:12:40.570Z,51.41
2018-04-15T07:15:08.994Z,50.31
2018-04-15T07:17:37.718Z,48.16
2018-04-15T07:20:06.134Z,47.10
2018-04-15T07:22:34.576Z,46.98
2018-04-15T07:25:03.188Z,45.45
2018-04-15T07:27:31.628Z,43.74
2018-04-15T07:30:00.059Z,42.13
2018-04-15T07:32:27.673Z,41.88
2018-04-15T07:34:57.124Z,40.79
2018-04-15T07:37:25.847Z,40.62
2018-04-15T07:39:55.509Z,40.63
2018-04-15T07:42:25.051Z,40.49
2018-04-15T07:44:53.472Z,38.42
2018-04-15T07:47:21.834Z,37.87
2018-04-15T07:49:50.435Z,36.55
2018-04-15T07:52:18.895Z,36.71
2018-04-15T07:54:47.271Z,36.37
2018-04-15T07:57:16.819Z,35.95
2018-04-15T07:59:45.339Z,34.73
2018-04-15T08:02:14.360Z,33.71
2018-04-15T08:04:42.024Z,33.91
2018-04-15T08:07:10.451Z,33.27
2018-04-15T08:09:38.860Z,31.93
2018-04-15T08:12:07.323Z,30.82
2018-04-15T08:14:34.689Z,30.79
2018-04-15T08:17:03.131Z,31.50
2018-04-15T08:19:31.562Z,32.07
2018-04-15T08:22:00.272Z,30.55
2018-04-15T08:24:28.725Z,30.79
2018-04-15T08:26:57.156Z,31.18
2018-04-15T08:29:25.603Z,32.46
2018-04-15T08:31:54.031Z,31.63
2018-04-15T08:34:22.766Z,32.67
2018-04-15T08:36:51.195Z,33.10
2018-04-15T08:39:19.571Z,33.49
2018-04-15T08:41:47.996Z,32.77
2018-04-15T08:44:17.483Z,33.51
2018-04-15T08:46:47.248Z,31.75
2018-04-15T08:49:15.610Z,29.75
2018-04-15T08:51:44.035Z,29.03
2018-04-15T08:54:13.787Z,28.57
2018-04-15T08:56:45.355Z,27.41
2018-04-15T08:59:13.808Z,27.98
2018-04-15T09:01:42.224Z,27.98
2018-04-15T09:04:10.896Z,28.59
2018-04-15T09:06:40.338Z,27.70
2018-04-15T09:09:08.795Z,26.43
2018-04-15T09:11:37.277Z,26.82
2018-04-15T09:14:05.711Z,26.42
2018-04-15T09:16:34.127Z,28.13
2018-04-15T09:19:03.590Z,29.51
2018-04-15T09:21:33.092Z,28.50
2018-04-15T09:24:02.683Z,28.91
2018-04-15T09:26:31.108Z,29.47
2018-04-15T09:29:00.684Z,29.82
2018-04-15T09:31:31.010Z,30.09
2018-04-15T09:33:59.508Z,32.05
2018-04-15T09:36:27.895Z,30.52
2018-04-15T09:38:56.321Z,29.67
2018-04-15T09:41:25.835Z,30.19
2018-04-15T09:43:55.233Z,28.57
2018-04-15T09:46:24.640Z,28.36
2018-04-15T09:48:53.099Z,28.65
2018-04-15T09:51:21.844Z,29.13
2018-04-15T09:53:50.214Z,30.16
2018-04-15T09:56:19.764Z,31.11
2018-04-15T09:58:48.326Z,31.01
2018-04-15T10:01:16.740Z,31.97
2018-04-15T10:03:45.109Z,30.56
2018-04-15T10:06:17.335Z,29.91
2018-04-15T10:08:45.836Z,30.42
2018-04-15T10:11:14.249Z,30.08
2018-04-15T10:13:42.715Z,30.89
2018-04-15T10:16:12.140Z,30.52
2018-04-15T10:18:40.550Z,30.39
2018-04-15T10:21:10.166Z,29.82
2018-04-15T10:23:38.639Z,28.69
2018-04-15T10:26:07.078Z,28.11
2018-04-15T10:28:36.787Z,28.69
2018-04-15T10:31:05.234Z,29.16
2018-04-15T10:33:33.667Z,28.42
2018-04-15T10:36:03.612Z,29.01
2018-04-15T10:38:32.056Z,29.38
2018-04-15T10:41:00.686Z,30.20
2018-04-15T10:43:29.087Z,30.26
2018-04-15T10:45:57.515Z,30.10
2018-04-15T10:48:25.952Z,30.57
2018-04-15T10:50:54.502Z,31.79
2018-04-15T10:53:22.960Z,32.12
2018-04-15T10:55:51.374Z,32.13
2018-04-15T10:58:20.091Z,32.67
2018-04-15T11:00:48.525Z,33.46
2018-04-15T11:03:18.328Z,33.91
2018-04-15T11:05:46.771Z,33.12
2018-04-15T11:08:15.185Z,33.51
2018-04-15T11:10:45.249Z,34.20
2018-04-15T11:13:13.663Z,34.65
2018-04-15T11:15:42.099Z,34.39
2018-04-15T11:18:10.535Z,33.93
2018-04-15T11:20:39.032Z,34.65
2018-04-15T11:23:08.784Z,33.33
2018-04-15T11:25:37.213Z,33.21
2018-04-15T11:28:08.548Z,33.05
2018-04-15T11:30:36.978Z,32.39
2018-04-15T11:33:05.363Z,32.83
2018-04-15T11:35:33.779Z,34.09
2018-04-15T11:38:02.234Z,33.82
2018-04-15T11:40:32.212Z,34.40
2018-04-15T11:43:00.643Z,34.11
2018-04-15T11:45:29.109Z,33.86
2018-04-15T11:47:57.569Z,33.77
2018-04-15T11:50:25.977Z,35.00
2018-04-15T11:52:55.509Z,35.47
2018-04-15T11:55:25.503Z,35.34
2018-04-15T11:57:53.939Z,35.30
2018-04-15T12:00:22.585Z,36.66
2018-04-15T12:02:51.031Z,36.25
2018-04-15T12:05:19.433Z,36.34
2018-04-15T12:07:47.900Z,35.77
2018-04-15T12:10:16.311Z,35.99
2018-04-15T12:12:45.779Z,36.56
2018-04-15T12:15:15.767Z,37.12
2018-04-15T12:17:44.259Z,37.05
2018-04-15T12:20:13.507Z,37.53
2018-04-15T12:22:42.032Z,37.29
2018-04-15T12:25:10.420Z,37.30
2018-04-15T12:27:38.821Z,37.69
2018-04-15T12:30:08.337Z,37.43
2018-04-15T12:32:36.778Z,37.34
2018-04-15T12:35:05.393Z,37.79
2018-04-15T12:37:35.232Z,39.80
2018-04-15T12:40:03.668Z,38.79
2018-04-15T12:42:32.142Z,38.72
2018-04-15T12:45:00.516Z,39.29
2018-04-15T12:47:31.931Z,41.19
2018-04-15T12:50:00.347Z,39.85
2018-04-15T12:52:28.716Z,39.39
2018-04-15T12:54:58.515Z,39.81
2018-04-15T12:57:26.919Z,40.34
2018-04-15T12:59:55.356Z,40.32
2018-04-15T13:02:24.052Z,40.81
2018-04-15T13:04:52.480Z,40.15
2018-04-15T13:07:20.943Z,41.73
2018-04-15T13:09:49.378Z,42.52
2018-04-15T13:12:18.816Z,40.38
2018-04-15T13:14:47.407Z,41.10
2018-04-15T13:17:15.794Z,41.55
2018-04-15T13:19:45.237Z,41.41
2018-04-15T13:22:13.850Z,41.46
2018-04-15T13:24:42.283Z,41.79
2018-04-15T13:27:10.715Z,41.49
2018-04-15T13:29:39.135Z,41.45
2018-04-15T13:32:07.565Z,41.15
2018-04-15T13:34:36.040Z,40.61
2018-04-15T13:37:05.516Z,40.98
2018-04-15T13:39:34.079Z,40.95
2018-04-15T13:42:02.508Z,40.25
2018-04-15T13:44:30.834Z,40.15
2018-04-15T13:46:59.505Z,40.43
2018-04-15T13:49:27.899Z,41.25
2018-04-15T13:51:56.315Z,40.39
2018-04-15T13:54:24.735Z,41.07
2018-04-15T13:56:53.125Z,40.51
2018-04-15T13:59:22.897Z,40.34
2018-04-15T14:01:51.292Z,40.05
2018-04-15T14:04:20.905Z,40.04
2018-04-15T14:06:50.772Z,41.25
2018-04-15T14:09:19.168Z,39.96
2018-04-15T14:11:50.103Z,39.70
2018-04-15T14:14:18.464Z,39.67
2018-04-15T14:16:47.973Z,40.02
2018-04-15T14:19:17.453Z,40.18
2018-04-15T14:21:47.118Z,40.07
2018-04-15T14:24:15.511Z,40.15
2018-04-15T14:26:43.943Z,40.08
2018-04-15T14:29:12.380Z,40.37
2018-04-15T14:31:41.939Z,39.97
2018-04-15T14:34:10.407Z,40.13
2018-04-15T14:36:38.830Z,40.75
2018-04-15T14:39:08.315Z,40.72
2018-04-15T14:41:38.164Z,40.56
2018-04-15T14:44:08.443Z,39.72
2018-04-15T14:46:36.891Z,40.91
2018-04-15T14:49:06.534Z,39.82
2018-04-15T14:51:34.996Z,39.29
2018-04-15T14:54:03.416Z,39.07
2018-04-15T14:56:31.879Z,39.24
2018-04-15T14:59:01.743Z,39.26
2018-04-15T15:01:30.171Z,39.03
2018-04-15T15:03:58.575Z,39.04
2018-04-15T15:06:26.984Z,39.15
2018-04-15T15:08:56.499Z,38.97
2018-04-15T15:11:26.368Z,38.99
2018-04-15T15:13:54.827Z,39.78
2018-04-15T15:16:23.409Z,39.47
2018-04-15T15:18:51.875Z,39.68
2018-04-15T15:21:20.299Z,38.36
2018-04-15T15:23:48.726Z,38.61
2018-04-15T15:26:17.146Z,39.54
2018-04-15T15:28:48.267Z,39.06
2018-04-15T15:31:18.107Z,38.82
2018-04-15T15:33:47.602Z,39.34
2018-04-15T15:36:17.831Z,38.50
2018-04-15T15:38:47.273Z,38.82
2018-04-15T15:41:15.771Z,40.08
2018-04-15T15:43:45.438Z,39.85
2018-04-15T15:46:13.849Z,40.33
2018-04-15T15:48:42.201Z,40.16
2018-04-15T15:51:10.656Z,39.72
2018-04-15T15:53:39.048Z,39.27
2018-04-15T15:56:08.498Z,39.15
2018-04-15T15:58:36.898Z,39.44
2018-04-15T16:01:05.405Z,39.60
2018-04-15T16:03:34.531Z,40.18
2018-04-15T16:06:04.263Z,39.50
2018-04-15T16:08:33.694Z,39.80
2018-04-15T16:11:02.084Z,41.15
2018-04-15T16:13:30.484Z,40.68
2018-04-15T16:15:58.881Z,40.27
2018-04-15T16:18:27.216Z,40.74
2018-04-15T16:20:55.883Z,40.82
2018-04-15T16:23:24.308Z,40.77
2018-04-15T16:25:52.704Z,40.25
2018-04-15T16:28:22.586Z,40.27
2018-04-15T16:30:50.951Z,40.37
2018-04-15T16:33:21.103Z,40.88
2018-04-15T16:35:49.475Z,40.93
2018-04-15T16:38:17.843Z,41.45
2018-04-15T16:40:46.275Z,40.96
2018-04-15T16:43:14.755Z,41.63
2018-04-15T16:45:43.127Z,41.75
2018-04-15T16:48:11.515Z,41.88
2018-04-15T16:50:41.655Z,42.36
2018-04-15T16:53:10.047Z,42.79
2018-04-15T16:55:38.422Z,42.92
2018-04-15T16:58:06.852Z,42.68
2018-04-15T17:00:35.218Z,43.09
2018-04-15T17:03:03.548Z,43.13
2018-04-15T17:05:31.918Z,43.18
2018-04-15T17:08:00.339Z,43.67
2018-04-15T17:10:28.717Z,43.69
2018-04-15T17:12:57.058Z,44.20
2018-04-15T17:15:25.449Z,43.93
2018-04-15T17:17:53.888Z,44.39
2018-04-15T17:20:22.483Z,44.56
2018-04-15T17:22:50.846Z,44.79
2018-04-15T17:25:21.253Z,44.66
2018-04-15T17:27:49.654Z,44.88
2018-04-15T17:30:18.034Z,44.70
2018-04-15T17:32:46.407Z,44.72
2018-04-15T17:35:14.808Z,44.83
2018-04-15T17:37:45.313Z,45.29
2018-04-15T17:40:13.731Z,45.17
2018-04-15T17:42:42.132Z,45.15
2018-04-15T17:45:12.068Z,45.24
2018-04-15T17:47:41.251Z,45.54
2018-04-15T17:50:09.648Z,45.92
2018-04-15T17:52:37.972Z,45.96
2018-04-15T17:55:08.182Z,46.08
2018-04-15T17:57:36.599Z,46.66
2018-04-15T18:00:05.278Z,46.84
2018-04-15T18:02:34.651Z,47.12
2018-04-15T18:05:03.022Z,46.85
2018-04-15T18:07:31.459Z,47.37
2018-04-15T18:09:59.843Z,47.81
2018-04-15T18:12:28.283Z,47.76
2018-04-15T18:14:56.953Z,47.80
2018-04-15T18:17:29.445Z,47.86
2018-04-15T18:19:57.815Z,47.76
2018-04-15T18:22:26.185Z,48.22
2018-04-15T18:24:54.762Z,47.73
2018-04-15T18:27:25.234Z,47.98
2018-04-15T18:29:53.581Z,47.91
2018-04-15T18:32:24.104Z,47.83
2018-04-15T18:34:52.515Z,48.09
2018-04-15T18:37:20.983Z,48.43
2018-04-15T18:39:50.965Z,48.65
2018-04-15T18:42:19.363Z,48.67
2018-04-15T18:44:49.844Z,48.95
2018-04-15T18:47:18.247Z,48.72
2018-04-15T18:49:46.682Z,48.54
2018-04-15T18:52:15.074Z,49.39
2018-04-15T18:54:43.489Z,49.46
2018-04-15T18:57:11.910Z,49.34
2018-04-15T18:59:42.046Z,48.35
2018-04-15T19:02:10.561Z,48.76
2018-04-15T19:04:38.954Z,48.94
2018-04-15T19:07:07.338Z,49.70
2018-04-15T19:09:35.711Z,49.61
2018-04-15T19:12:04.095Z,50.10
2018-04-15T19:14:34.544Z,50.41
2018-04-15T19:17:06.739Z,50.74
2018-04-15T19:19:35.235Z,51.13
2018-04-15T19:22:03.824Z,51.48
2018-04-15T19:24:32.255Z,51.41
2018-04-15T19:27:00.632Z,52.05
2018-04-15T19:29:29.058Z,52.45
2018-04-15T19:31:57.442Z,52.63
2018-04-15T19:34:27.899Z,52.64
2018-04-15T19:36:58.251Z,51.23
2018-04-15T19:39:28.819Z,50.58
2018-04-15T19:41:57.234Z,50.76
2018-04-15T19:44:29.215Z,51.69
2018-04-15T19:46:57.699Z,52.43
2018-04-15T19:49:26.107Z,52.81
2018-04-15T19:51:54.567Z,53.31
2018-04-15T19:54:23.002Z,54.15
2018-04-15T19:56:51.526Z,54.15
2018-04-15T19:59:22.592Z,54.11
2018-04-15T20:01:53.009Z,54.13
2018-04-15T20:04:21.395Z,54.64
2018-04-15T20:06:49.749Z,54.62
2018-04-15T20:09:20.148Z,54.80
2018-04-15T20:11:48.584Z,56.39
2018-04-15T20:14:16.985Z,59.03
2018-04-15T20:16:45.399Z,60.38
2018-04-15T20:19:15.927Z,61.76
2018-04-15T20:21:44.389Z,62.89
2018-04-15T20:24:14.995Z,64.73
2018-04-15T20:26:43.387Z,65.79
2018-04-15T20:29:13.612Z,66.07
2018-04-15T20:31:41.979Z,66.78
2018-04-15T20:34:10.395Z,67.62
2018-04-15T20:36:38.815Z,67.81
2018-04-15T20:39:07.256Z,67.99
2018-04-15T20:41:37.367Z,68.75
2018-04-15T20:44:05.851Z,69.25
2018-04-15T20:46:36.207Z,69.97
2018-04-15T20:49:04.587Z,70.08
2018-04-15T20:51:34.685Z,70.16
2018-04-15T20:54:03.048Z,70.78
2018-04-15T20:56:31.483Z,70.39
2018-04-15T20:58:59.856Z,70.50
2018-04-15T21:01:29.953Z,71.39
2018-04-15T21:03:58.378Z,71.62
2018-04-15T21:06:26.783Z,71.84
2018-04-15T21:08:55.181Z,72.95
2018-04-15T21:11:25.315Z,73.40
2018-04-15T21:13:53.727Z,73.11
2018-04-15T21:16:22.078Z,73.95
2018-04-15T21:18:54.065Z,73.29
2018-04-15T21:21:22.463Z,73.29
2018-04-15T21:23:50.809Z,74.11
2018-04-15T21:26:19.203Z,74.71
2018-04-15T21:28:47.516Z,74.90
2018-04-15T21:31:15.902Z,74.74
2018-04-15T21:33:44.211Z,73.94
2018-04-15T21:36:12.670Z,74.72
2018-04-15T21:38:41.143Z,74.70
2018-04-15T21:41:13.575Z,74.80
2018-04-15T21:43:45.456Z,74.79
2018-04-15T21:46:13.848Z,75.15
2018-04-15T21:48:42.337Z,74.66
2018-04-15T21:51:10.724Z,74.53
2018-04-15T21:53:39.053Z,74.57
2018-04-15T21:56:07.479Z,75.17
2018-04-15T21:58:37.424Z,74.48
2018-04-15T22:01:05.844Z,74.16
2018-04-15T22:03:35.931Z,74.15
2018-04-15T22:06:04.379Z,74.96
2018-04-15T22:08:34.864Z,74.33
2018-04-15T22:11:03.247Z,74.37
2018-04-15T22:13:31.628Z,74.04
2018-04-15T22:16:01.571Z,73.88
2018-04-15T22:18:29.979Z,74.37
2018-04-15T22:21:00.415Z,74.16
2018-04-15T22:23:36.454Z,74.22
2018-04-15T22:26:04.854Z,75.49
2018-04-15T22:28:33.278Z,75.17
2018-04-15T22:31:05.380Z,75.26
2018-04-15T22:33:35.802Z,75.89
2018-04-15T22:36:04.171Z,76.27
2018-04-15T22:38:36.299Z,75.65
2018-04-15T22:41:04.700Z,75.64
2018-04-15T22:43:36.760Z,75.30
2018-04-15T22:46:05.155Z,75.79
2018-04-15T23:01:58.991Z,76.14
2018-04-15T23:04:27.452Z,76.32
2018-04-15T23:06:57.926Z,76.00
2018-04-15T23:09:28.145Z,76.38
2018-04-15T23:12:01.675Z,76.30
2018-04-15T23:14:31.690Z,76.26
2018-04-15T23:17:02.207Z,76.34
2018-04-15T23:19:30.567Z,76.57
2018-04-15T23:21:59.199Z,76.24
2018-04-15T23:24:27.559Z,76.31
2018-04-15T23:26:55.967Z,76.31
2018-04-15T23:29:26.485Z,76.26
2018-04-15T23:31:54.881Z,76.54
2018-04-15T23:34:31.574Z,76.54
2018-04-15T23:36:59.966Z,77.05
2018-04-15T23:39:28.376Z,76.49
2018-04-15T23:41:56.884Z,77.10
2018-04-15T23:44:25.317Z,77.19
2018-04-15T23:46:53.764Z,77.10
2018-04-15T23:49:22.201Z,76.89
2018-04-15T23:51:50.607Z,77.12
2018-04-15T23:54:19.042Z,77.10
2018-04-15T23:56:54.302Z,77.38
2018-04-15T23:59:22.708Z,77.17
